LSZS/SMV METAR and TAF weather

Enter ICAO airport designator
Station Type Date Time Source
LSZS METAR 2020/02/16 19:50 UTC NOAA

LSZS 161950Z AUTO 21004KT 180V270 CAVOK M02/M08 Q1025


Station Type Date Time Source
LSZS Decoded METAR 2020/02/16 19:50 UTC NOAA

Station name not available
Feb 16, 2020 - 02:50 PM EST / 2020.02.16 1950 UTC
Wind: from the SSW (210 degrees) at 5 MPH (4 KT) (direction variable):0
Visibility: greater than 7 mile(s):0
Temperature: 28 F (-2 C)
Windchill: 23 F (-5 C):1
Dew Point: 17 F (-8 C)
Relative Humidity: 63%
Pressure (altimeter): 30.27 in. Hg (1025 hPa)
ob: LSZS 161950Z AUTO 21004KT 180V270 CAVOK M02/M08 Q1025
cycle: 20

Station Type Date Time Source
LSZS TAF 2014/12/22 20:03 UTC NOAA

TAF
AMD LSZS 222054Z 2220/2224 CNL

Example: see airport list